sensor_id;sensor_type;location;lat;lon;timestamp;pressure;altitude;pressure_sealevel;temperature;humidity
40918;BME280;26644;50.248;19.032;2022-11-20T00:00:27;97777.91;;;-5.13;73.63
40918;BME280;26644;50.248;19.032;2022-11-20T00:01:29;97782.44;;;-5.14;73.70
40918;BME280;26644;50.248;19.032;2022-11-20T00:02:33;97763.91;;;-5.15;73.64
40918;BME280;26644;50.248;19.032;2022-11-20T00:03:35;97784.06;;;-5.13;73.32
40918;BME280;26644;50.248;19.032;2022-11-20T00:04:38;97786.94;;;-5.14;73.61
40918;BME280;26644;50.248;19.032;2022-11-20T00:05:40;97783.66;;;-5.16;73.73
40918;BME280;26644;50.248;19.032;2022-11-20T00:06:43;97786.31;;;-5.16;73.70
40918;BME280;26644;50.248;19.032;2022-11-20T00:07:44;97781.34;;;-5.19;73.30
40918;BME280;26644;50.248;19.032;2022-11-20T00:08:48;97785.06;;;-5.20;73.32
40918;BME280;26644;50.248;19.032;2022-11-20T00:09:50;97784.63;;;-5.24;73.55
40918;BME280;26644;50.248;19.032;2022-11-20T00:10:52;97779.81;;;-5.29;73.47
40918;BME280;26644;50.248;19.032;2022-11-20T00:11:54;97786.22;;;-5.30;73.42
40918;BME280;26644;50.248;19.032;2022-11-20T00:12:57;97783.91;;;-5.33;73.08
40918;BME280;26644;50.248;19.032;2022-11-20T00:14:01;97778.97;;;-5.36;73.02
40918;BME280;26644;50.248;19.032;2022-11-20T00:15:05;97780.16;;;-5.38;73.33
40918;BME280;26644;50.248;19.032;2022-11-20T00:16:10;97775.00;;;-5.40;73.03
40918;BME280;26644;50.248;19.032;2022-11-20T00:17:13;97776.03;;;-5.41;73.18
40918;BME280;26644;50.248;19.032;2022-11-20T00:18:16;97769.88;;;-5.42;73.15
40918;BME280;26644;50.248;19.032;2022-11-20T00:19:19;97774.19;;;-5.40;73.38
40918;BME280;26644;50.248;19.032;2022-11-20T00:20:22;97768.00;;;-5.41;73.86
40918;BME280;26644;50.248;19.032;2022-11-20T00:21:25;97767.00;;;-5.40;73.85
40918;BME280;26644;50.248;19.032;2022-11-20T00:22:29;97762.44;;;-5.39;73.86
40918;BME280;26644;50.248;19.032;2022-11-20T00:23:31;97762.66;;;-5.41;73.57
40918;BME280;26644;50.248;19.032;2022-11-20T00:24:34;97764.31;;;-5.40;73.47
40918;BME280;26644;50.248;19.032;2022-11-20T00:25:35;97773.16;;;-5.39;73.31
40918;BME280;26644;50.248;19.032;2022-11-20T00:26:38;97771.31;;;-5.39;73.52
40918;BME280;26644;50.248;19.032;2022-11-20T00:27:40;97774.00;;;-5.39;73.49
40918;BME280;26644;50.248;19.032;2022-11-20T00:28:43;97771.94;;;-5.37;73.37
40918;BME280;26644;50.248;19.032;2022-11-20T00:29:52;97767.44;;;-5.36;73.59
40918;BME280;26644;50.248;19.032;2022-11-20T00:31:00;97768.91;;;-5.34;73.73
40918;BME280;26644;50.248;19.032;2022-11-20T00:32:04;97765.19;;;-5.33;73.77
40918;BME280;26644;50.248;19.032;2022-11-20T00:33:05;97768.69;;;-5.32;73.65
40918;BME280;26644;50.248;19.032;2022-11-20T00:34:10;97764.81;;;-5.30;73.53
40918;BME280;26644;50.248;19.032;2022-11-20T00:35:12;97772.84;;;-5.30;73.48
40918;BME280;26644;50.248;19.032;2022-11-20T00:36:16;97770.97;;;-5.29;73.61
40918;BME280;26644;50.248;19.032;2022-11-20T00:37:18;97770.78;;;-5.28;73.40
40918;BME280;26644;50.248;19.032;2022-11-20T00:38:21;97771.63;;;-5.27;73.72
40918;BME280;26644;50.248;19.032;2022-11-20T00:39:22;97772.44;;;-5.27;73.59
40918;BME280;26644;50.248;19.032;2022-11-20T00:40:25;97772.44;;;-5.27;73.68
40918;BME280;26644;50.248;19.032;2022-11-20T00:41:28;97772.44;;;-5.27;73.97
40918;BME280;26644;50.248;19.032;2022-11-20T00:42:31;97766.28;;;-5.27;74.26
40918;BME280;26644;50.248;19.032;2022-11-20T00:43:33;97769.75;;;-5.27;74.26
40918;BME280;26644;50.248;19.032;2022-11-20T00:44:36;97772.25;;;-5.25;74.41
40918;BME280;26644;50.248;19.032;2022-11-20T00:45:38;97766.91;;;-5.25;74.11
40918;BME280;26644;50.248;19.032;2022-11-20T00:46:41;97775.78;;;-5.24;74.45
40918;BME280;26644;50.248;19.032;2022-11-20T00:47:42;97775.78;;;-5.24;74.92
40918;BME280;26644;50.248;19.032;2022-11-20T00:48:45;97763.78;;;-5.29;75.23
40918;BME280;26644;50.248;19.032;2022-11-20T00:49:48;97772.25;;;-5.25;75.64
40918;BME280;26644;50.248;19.032;2022-11-20T00:50:52;97761.50;;;-5.32;75.78
40918;BME280;26644;50.248;19.032;2022-11-20T00:51:54;97770.22;;;-5.23;76.24
40918;BME280;26644;50.248;19.032;2022-11-20T00:52:56;97758.25;;;-5.27;76.02
40918;BME280;26644;50.248;19.032;2022-11-20T00:53:58;97768.16;;;-5.21;76.10
40918;BME280;26644;50.248;19.032;2022-11-20T00:55:03;97758.28;;;-5.20;75.69
40918;BME280;26644;50.248;19.032;2022-11-20T00:56:09;97767.16;;;-5.20;75.40
40918;BME280;26644;50.248;19.032;2022-11-20T00:57:12;97762.81;;;-5.21;75.57
40918;BME280;26644;50.248;19.032;2022-11-20T00:58:14;97753.13;;;-5.22;75.27
40918;BME280;26644;50.248;19.032;2022-11-20T00:59:16;97744.88;;;-5.27;75.47
40918;BME280;26644;50.248;19.032;2022-11-20T01:00:19;97756.44;;;-5.20;75.18
40918;BME280;26644;50.248;19.032;2022-11-20T01:01:23;97756.44;;;-5.20;75.19
40918;BME280;26644;50.248;19.032;2022-11-20T01:02:27;97756.44;;;-5.20;75.36
40918;BME280;26644;50.248;19.032;2022-11-20T01:03:31;97747.38;;;-5.19;75.22
40918;BME280;26644;50.248;19.032;2022-11-20T01:04:34;97757.09;;;-5.18;75.47
40918;BME280;26644;50.248;19.032;2022-11-20T01:05:37;97750.69;;;-5.17;75.23
40918;BME280;26644;50.248;19.032;2022-11-20T01:06:40;97747.84;;;-5.15;75.74
40918;BME280;26644;50.248;19.032;2022-11-20T01:07:42;97747.63;;;-5.14;75.86
40918;BME280;26644;50.248;19.032;2022-11-20T01:08:44;97746.78;;;-5.14;76.19
40918;BME280;26644;50.248;19.032;2022-11-20T01:09:47;97751.94;;;-5.13;76.52
40918;BME280;26644;50.248;19.032;2022-11-20T01:10:49;97749.25;;;-5.13;76.06
40918;BME280;26644;50.248;19.032;2022-11-20T01:11:52;97746.59;;;-5.13;76.14
40918;BME280;26644;50.248;19.032;2022-11-20T01:12:54;97750.50;;;-5.15;75.60
40918;BME280;26644;50.248;19.032;2022-11-20T01:14:13;97748.22;;;-5.18;75.48
40918;BME280;26644;50.248;19.032;2022-11-20T01:15:17;97751.91;;;-5.19;75.46
40918;BME280;26644;50.248;19.032;2022-11-20T01:16:21;97753.13;;;-5.22;75.34
40918;BME280;26644;50.248;19.032;2022-11-20T01:17:25;97746.94;;;-5.22;75.48
40918;BME280;26644;50.248;19.032;2022-11-20T01:18:27;97744.47;;;-5.24;75.49
40918;BME280;26644;50.248;19.032;2022-11-20T01:19:29;97745.28;;;-5.23;75.44
40918;BME280;26644;50.248;19.032;2022-11-20T01:20:34;97743.44;;;-5.23;75.74
40918;BME280;26644;50.248;19.032;2022-11-20T01:21:40;97741.59;;;-5.22;75.47
40918;BME280;26644;50.248;19.032;2022-11-20T01:22:44;97742.25;;;-5.20;75.66
40918;BME280;26644;50.248;19.032;2022-11-20T01:23:47;97745.53;;;-5.18;75.35
40918;BME280;26644;50.248;19.032;2022-11-20T01:24:50;97739.97;;;-5.17;75.35
40918;BME280;26644;50.248;19.032;2022-11-20T01:25:52;97749.66;;;-5.16;75.27
40918;BME280;26644;50.248;19.032;2022-11-20T01:26:54;97746.19;;;-5.16;75.16
40918;BME280;26644;50.248;19.032;2022-11-20T01:27:57;97747.00;;;-5.16;75.31
40918;BME280;26644;50.248;19.032;2022-11-20T01:29:00;97745.31;;;-5.17;75.34
40918;BME280;26644;50.248;19.032;2022-11-20T01:30:03;97748.22;;;-5.18;75.25
40918;BME280;26644;50.248;19.032;2022-11-20T01:31:12;97739.56;;;-5.20;74.93
40918;BME280;26644;50.248;19.032;2022-11-20T01:32:15;97738.09;;;-5.23;74.99
40918;BME280;26644;50.248;19.032;2022-11-20T01:33:19;97738.31;;;-5.24;75.25
40918;BME280;26644;50.248;19.032;2022-11-20T01:34:21;97739.13;;;-5.24;75.61
40918;BME280;26644;50.248;19.032;2022-11-20T01:35:25;97732.75;;;-5.23;75.53
40918;BME280;26644;50.248;19.032;2022-11-20T01:36:29;97730.06;;;-5.23;75.69
40918;BME280;26644;50.248;19.032;2022-11-20T01:37:34;97729.22;;;-5.23;75.79
40918;BME280;26644;50.248;19.032;2022-11-20T01:38:36;97728.41;;;-5.24;76.20
40918;BME280;26644;50.248;19.032;2022-11-20T01:39:39;97723.06;;;-5.24;76.53
40918;BME280;26644;50.248;19.032;2022-11-20T01:40:40;97729.22;;;-5.23;76.61
40918;BME280;26644;50.248;19.032;2022-11-20T01:41:44;97730.06;;;-5.23;76.56
40918;BME280;26644;50.248;19.032;2022-11-20T01:43:13;97722.03;;;-5.23;76.73
40918;BME280;26644;50.248;19.032;2022-11-20T01:46:04;97715.03;;;-5.24;76.21
40918;BME280;26644;50.248;19.032;2022-11-20T01:47:10;97713.16;;;-5.23;76.25
40918;BME280;26644;50.248;19.032;2022-11-20T01:48:18;97711.53;;;-5.24;75.94
40918;BME280;26644;50.248;19.032;2022-11-20T01:49:26;97714.59;;;-5.28;75.58
40918;BME280;26644;50.248;19.032;2022-11-20T01:50:37;97708.78;;;-5.31;75.48
40918;BME280;26644;50.248;19.032;2022-11-20T01:51:43;97706.06;;;-5.38;75.35
40918;BME280;26644;50.248;19.032;2022-11-20T01:52:56;97712.88;;;-5.35;75.68
40918;BME280;26644;50.248;19.032;2022-11-20T01:54:06;97716.59;;;-5.36;75.71
40918;BME280;26644;50.248;19.032;2022-11-20T01:55:17;97704.84;;;-5.35;75.87
40918;BME280;26644;50.248;19.032;2022-11-20T01:56:25;97684.56;;;-5.51;75.86
40918;BME280;26644;50.248;19.032;2022-11-20T01:57:32;97712.72;;;-5.34;75.76
40918;BME280;26644;50.248;19.032;2022-11-20T01:58:42;97705.31;;;-5.32;76.16
40918;BME280;26644;50.248;19.032;2022-11-20T01:59:57;97719.31;;;-5.30;76.16
40918;BME280;26644;50.248;19.032;2022-11-20T02:01:03;97711.47;;;-5.31;76.28
40918;BME280;26644;50.248;19.032;2022-11-20T02:02:07;97713.13;;;-5.30;76.25
40918;BME280;26644;50.248;19.032;2022-11-20T02:03:11;97704.00;;;-5.43;75.95
40918;BME280;26644;50.248;19.032;2022-11-20T02:04:18;97711.25;;;-5.36;75.94
40918;BME280;26644;50.248;19.032;2022-11-20T02:05:27;97713.72;;;-5.35;76.15
40918;BME280;26644;50.248;19.032;2022-11-20T02:06:37;97718.22;;;-5.35;75.93
40918;BME280;26644;50.248;19.032;2022-11-20T02:07:46;97719.28;;;-5.36;75.59
40918;BME280;26644;50.248;19.032;2022-11-20T02:08:50;97721.09;;;-5.37;75.48
40918;BME280;26644;50.248;19.032;2022-11-20T02:09:54;97726.66;;;-5.38;75.25
40918;BME280;26644;50.248;19.032;2022-11-20T02:10:55;97729.72;;;-5.42;75.25
40918;BME280;26644;50.248;19.032;2022-11-20T02:11:58;97726.81;;;-5.47;75.20
40918;BME280;26644;50.248;19.032;2022-11-20T02:13:02;97731.97;;;-5.45;75.44
40918;BME280;26644;50.248;19.032;2022-11-20T02:14:23;97727.63;;;-5.46;75.51
40918;BME280;26644;50.248;19.032;2022-11-20T02:15:27;97725.59;;;-5.44;75.75
40918;BME280;26644;50.248;19.032;2022-11-20T02:16:34;97730.94;;;-5.44;75.53
40918;BME280;26644;50.248;19.032;2022-11-20T02:17:39;97723.94;;;-5.45;75.23
40918;BME280;26644;50.248;19.032;2022-11-20T02:18:42;97733.63;;;-5.44;75.57
40918;BME280;26644;50.248;19.032;2022-11-20T02:19:46;97733.63;;;-5.44;75.61
40918;BME280;26644;50.248;19.032;2022-11-20T02:20:52;97726.34;;;-5.50;75.48
40918;BME280;26644;50.248;19.032;2022-11-20T02:22:07;97720.41;;;-5.52;75.35
40918;BME280;26644;50.248;19.032;2022-11-20T02:23:23;97735.28;;;-5.43;75.51
40918;BME280;26644;50.248;19.032;2022-11-20T02:24:31;97741.25;;;-5.41;75.63
40918;BME280;26644;50.248;19.032;2022-11-20T02:25:36;97733.22;;;-5.41;75.36
40918;BME280;26644;50.248;19.032;2022-11-20T02:26:48;97732.41;;;-5.42;75.54
40918;BME280;26644;50.248;19.032;2022-11-20T02:27:54;97743.94;;;-5.41;75.40
40918;BME280;26644;50.248;19.032;2022-11-20T02:28:59;97747.63;;;-5.42;75.15
40918;BME280;26644;50.248;19.032;2022-11-20T02:30:05;97745.34;;;-5.45;75.29
40918;BME280;26644;50.248;19.032;2022-11-20T02:31:08;97745.72;;;-5.48;75.13
40918;BME280;26644;50.248;19.032;2022-11-20T02:32:18;97748.59;;;-5.50;75.07
40918;BME280;26644;50.248;19.032;2022-11-20T02:33:21;97747.13;;;-5.52;75.37
40918;BME280;26644;50.248;19.032;2022-11-20T02:34:23;97758.19;;;-5.55;74.86
40918;BME280;26644;50.248;19.032;2022-11-20T02:35:53;97753.88;;;-5.56;74.93
40918;BME280;26644;50.248;19.032;2022-11-20T02:36:57;97754.06;;;-5.58;74.61
40918;BME280;26644;50.248;19.032;2022-11-20T02:38:02;97750.97;;;-5.62;74.10
40918;BME280;26644;50.248;19.032;2022-11-20T02:39:05;97744.16;;;-5.64;73.91
40918;BME280;26644;50.248;19.032;2022-11-20T02:40:11;97749.81;;;-5.74;74.01
40918;BME280;26644;50.248;19.032;2022-11-20T02:41:13;97756.44;;;-5.70;74.13
40918;BME280;26644;50.248;19.032;2022-11-20T02:42:15;97749.63;;;-5.72;73.92
40918;BME280;26644;50.248;19.032;2022-11-20T02:43:18;97746.94;;;-5.72;74.25
40918;BME280;26644;50.248;19.032;2022-11-20T02:44:20;97749.63;;;-5.72;74.20
40918;BME280;26644;50.248;19.032;2022-11-20T02:45:23;97754.78;;;-5.71;73.86
40918;BME280;26644;50.248;19.032;2022-11-20T02:46:25;97753.13;;;-5.72;73.97
40918;BME280;26644;50.248;19.032;2022-11-20T02:47:28;97749.63;;;-5.72;73.87
40918;BME280;26644;50.248;19.032;2022-11-20T02:48:30;97752.28;;;-5.72;74.11
40918;BME280;26644;50.248;19.032;2022-11-20T02:49:32;97740.53;;;-5.78;74.00
40918;BME280;26644;50.248;19.032;2022-11-20T02:50:36;97745.31;;;-5.73;74.32
40918;BME280;26644;50.248;19.032;2022-11-20T02:51:40;97750.66;;;-5.73;74.37
40918;BME280;26644;50.248;19.032;2022-11-20T02:52:43;97727.28;;;-5.86;74.34
40918;BME280;26644;50.248;19.032;2022-11-20T02:53:45;97746.31;;;-5.74;74.15
40918;BME280;26644;50.248;19.032;2022-11-20T02:54:47;97749.00;;;-5.74;74.51
40918;BME280;26644;50.248;19.032;2022-11-20T02:55:51;97746.50;;;-5.76;74.94
40918;BME280;26644;50.248;19.032;2022-11-20T02:56:53;97745.66;;;-5.77;75.94
40918;BME280;26644;50.248;19.032;2022-11-20T02:57:56;97739.69;;;-5.79;76.45
40918;BME280;26644;50.248;19.032;2022-11-20T02:58:57;97740.53;;;-5.78;76.71
40918;BME280;26644;50.248;19.032;2022-11-20T03:00:00;97747.06;;;-5.81;77.50
40918;BME280;26644;50.248;19.032;2022-11-20T03:01:02;97744.22;;;-5.79;77.49
40918;BME280;26644;50.248;19.032;2022-11-20T03:02:04;97742.56;;;-5.80;77.78
40918;BME280;26644;50.248;19.032;2022-11-20T03:03:06;97746.06;;;-5.80;77.79
40918;BME280;26644;50.248;19.032;2022-11-20T03:04:09;97740.91;;;-5.81;78.06
40918;BME280;26644;50.248;19.032;2022-11-20T03:05:11;97740.06;;;-5.82;78.33
40918;BME280;26644;50.248;19.032;2022-11-20T03:06:13;97731.22;;;-5.82;78.15
40918;BME280;26644;50.248;19.032;2022-11-20T03:07:15;97733.91;;;-5.82;78.11
40918;BME280;26644;50.248;19.032;2022-11-20T03:08:18;97737.59;;;-5.83;78.23
40918;BME280;26644;50.248;19.032;2022-11-20T03:09:20;97732.25;;;-5.83;78.22
40918;BME280;26644;50.248;19.032;2022-11-20T03:10:22;97744.59;;;-5.82;78.48
40918;BME280;26644;50.248;19.032;2022-11-20T03:11:26;97741.94;;;-5.82;78.57
40918;BME280;26644;50.248;19.032;2022-11-20T03:12:27;97741.94;;;-5.82;78.66
40918;BME280;26644;50.248;19.032;2022-11-20T03:13:30;97743.59;;;-5.81;78.61
40918;BME280;26644;50.248;19.032;2022-11-20T03:14:32;97739.06;;;-5.81;78.38
40918;BME280;26644;50.248;19.032;2022-11-20T03:15:35;97734.28;;;-5.85;78.47
40918;BME280;26644;50.248;19.032;2022-11-20T03:16:37;97738.25;;;-5.81;78.80
40918;BME280;26644;50.248;19.032;2022-11-20T03:17:40;97738.25;;;-5.81;78.81
40918;BME280;26644;50.248;19.032;2022-11-20T03:18:42;97741.53;;;-5.79;78.61
40918;BME280;26644;50.248;19.032;2022-11-20T03:19:44;97742.19;;;-5.77;78.12
40918;BME280;26644;50.248;19.032;2022-11-20T03:20:46;97734.97;;;-5.77;77.68
40918;BME280;26644;50.248;19.032;2022-11-20T03:21:48;97745.31;;;-5.73;77.16
40918;BME280;26644;50.248;19.032;2022-11-20T03:22:50;97739.75;;;-5.72;76.46
40918;BME280;26644;50.248;19.032;2022-11-20T03:23:55;97741.44;;;-5.71;76.22
40918;BME280;26644;50.248;19.032;2022-11-20T03:24:57;97742.03;;;-5.69;76.12
40918;BME280;26644;50.248;19.032;2022-11-20T03:26:14;97749.69;;;-5.66;75.68
40918;BME280;26644;50.248;19.032;2022-11-20T03:27:20;97747.84;;;-5.65;75.67
40918;BME280;26644;50.248;19.032;2022-11-20T03:28:21;97744.16;;;-5.64;75.35
40918;BME280;26644;50.248;19.032;2022-11-20T03:29:24;97736.31;;;-5.66;75.08
40918;BME280;26644;50.248;19.032;2022-11-20T03:30:26;97743.31;;;-5.65;74.99
40918;BME280;26644;50.248;19.032;2022-11-20T03:31:30;97743.31;;;-5.65;74.90
40918;BME280;26644;50.248;19.032;2022-11-20T03:32:33;97735.28;;;-5.65;74.77
40918;BME280;26644;50.248;19.032;2022-11-20T03:33:36;97735.28;;;-5.65;74.67
40918;BME280;26644;50.248;19.032;2022-11-20T03:34:39;97736.13;;;-5.64;74.67
40918;BME280;26644;50.248;19.032;2022-11-20T03:35:41;97738.34;;;-5.68;74.58
40918;BME280;26644;50.248;19.032;2022-11-20T03:36:43;97740.63;;;-5.65;74.56
40918;BME280;26644;50.248;19.032;2022-11-20T03:37:45;97737.97;;;-5.65;74.44
40918;BME280;26644;50.248;19.032;2022-11-20T03:38:47;97738.81;;;-5.64;74.31
40918;BME280;26644;50.248;19.032;2022-11-20T03:39:51;97738.81;;;-5.64;74.26
40918;BME280;26644;50.248;19.032;2022-11-20T03:40:58;97742.31;;;-5.64;74.46
40918;BME280;26644;50.248;19.032;2022-11-20T03:42:02;97741.28;;;-5.63;74.39
40918;BME280;26644;50.248;19.032;2022-11-20T03:43:26;97739.63;;;-5.64;74.82
40918;BME280;26644;50.248;19.032;2022-11-20T03:44:28;97733.47;;;-5.64;74.50
40918;BME280;26644;50.248;19.032;2022-11-20T03:45:31;97741.28;;;-5.63;74.44
40918;BME280;26644;50.248;19.032;2022-11-20T03:46:32;97690.00;;;-5.95;74.19
40918;BME280;26644;50.248;19.032;2022-11-20T03:47:35;97735.69;;;-5.68;74.27
40918;BME280;26644;50.248;19.032;2022-11-20T03:48:36;97744.31;;;-5.66;74.15
40918;BME280;26644;50.248;19.032;2022-11-20T03:49:39;97744.53;;;-5.67;74.36
40918;BME280;26644;50.248;19.032;2022-11-20T03:50:41;97741.03;;;-5.68;74.47
40918;BME280;26644;50.248;19.032;2022-11-20T03:51:43;97745.56;;;-5.68;74.38
40918;BME280;26644;50.248;19.032;2022-11-20T03:52:45;97742.88;;;-5.68;74.41
40918;BME280;26644;50.248;19.032;2022-11-20T03:53:49;97743.91;;;-5.69;74.37
40918;BME280;26644;50.248;19.032;2022-11-20T03:54:53;97739.75;;;-5.72;74.37
40918;BME280;26644;50.248;19.032;2022-11-20T03:55:56;97730.66;;;-5.78;74.46
40918;BME280;26644;50.248;19.032;2022-11-20T03:56:57;97739.91;;;-5.80;74.49
40918;BME280;26644;50.248;19.032;2022-11-20T03:58:00;97742.81;;;-5.75;74.49
40918;BME280;26644;50.248;19.032;2022-11-20T03:59:03;97745.47;;;-5.75;74.34
40918;BME280;26644;50.248;19.032;2022-11-20T04:00:06;97743.00;;;-5.77;74.32
40918;BME280;26644;50.248;19.032;2022-11-20T04:01:11;97736.84;;;-5.77;74.04
40918;BME280;26644;50.248;19.032;2022-11-20T04:02:16;97737.03;;;-5.79;74.49
40918;BME280;26644;50.248;19.032;2022-11-20T04:03:17;97741.38;;;-5.78;74.68
40918;BME280;26644;50.248;19.032;2022-11-20T04:04:20;97732.44;;;-5.85;74.81
40918;BME280;26644;50.248;19.032;2022-11-20T04:05:21;97732.03;;;-5.82;74.76
40918;BME280;26644;50.248;19.032;2022-11-20T04:06:26;97735.94;;;-5.84;75.04
40918;BME280;26644;50.248;19.032;2022-11-20T04:07:29;97726.84;;;-5.90;75.07
40918;BME280;26644;50.248;19.032;2022-11-20T04:08:32;97732.84;;;-5.88;74.60
40918;BME280;26644;50.248;19.032;2022-11-20T04:09:33;97734.03;;;-5.90;74.41
40918;BME280;26644;50.248;19.032;2022-11-20T04:10:36;97728.25;;;-5.94;73.88
40918;BME280;26644;50.248;19.032;2022-11-20T04:11:40;97723.84;;;-6.02;74.22
40918;BME280;26644;50.248;19.032;2022-11-20T04:12:42;97725.09;;;-5.98;74.25
40918;BME280;26644;50.248;19.032;2022-11-20T04:13:47;97732.13;;;-5.97;74.38
40918;BME280;26644;50.248;19.032;2022-11-20T04:14:52;97726.16;;;-5.99;74.30
40918;BME280;26644;50.248;19.032;2022-11-20T04:15:57;97731.66;;;-6.00;74.24
40918;BME280;26644;50.248;19.032;2022-11-20T04:17:00;97725.31;;;-5.99;74.35
40918;BME280;26644;50.248;19.032;2022-11-20T04:18:01;97725.97;;;-5.97;74.60
40918;BME280;26644;50.248;19.032;2022-11-20T04:19:08;97723.09;;;-5.96;74.62
40918;BME280;26644;50.248;19.032;2022-11-20T04:20:12;97730.72;;;-5.93;74.37
40918;BME280;26644;50.248;19.032;2022-11-20T04:21:15;97724.16;;;-5.90;74.52
40918;BME280;26644;50.248;19.032;2022-11-20T04:22:17;97718.00;;;-5.90;74.27
40918;BME280;26644;50.248;19.032;2022-11-20T04:23:19;97721.28;;;-5.88;74.68
40918;BME280;26644;50.248;19.032;2022-11-20T04:24:21;97716.78;;;-5.88;74.29
40918;BME280;26644;50.248;19.032;2022-11-20T04:25:23;97721.94;;;-5.86;74.48
40918;BME280;26644;50.248;19.032;2022-11-20T04:26:27;97717.22;;;-5.84;74.33
40918;BME280;26644;50.248;19.032;2022-11-20T04:27:32;97713.53;;;-5.83;74.26
40918;BME280;26644;50.248;19.032;2022-11-20T04:28:34;97712.31;;;-5.81;74.40
40918;BME280;26644;50.248;19.032;2022-11-20T04:29:37;97723.84;;;-5.80;74.28
40918;BME280;26644;50.248;19.032;2022-11-20T04:30:40;97715.63;;;-5.79;74.29
40918;BME280;26644;50.248;19.032;2022-11-20T04:31:42;97718.94;;;-5.77;74.32
40918;BME280;26644;50.248;19.032;2022-11-20T04:32:44;97707.41;;;-5.77;73.97
40918;BME280;26644;50.248;19.032;2022-11-20T04:33:47;97706.59;;;-5.78;74.13
40918;BME280;26644;50.248;19.032;2022-11-20T04:34:48;97715.63;;;-5.79;74.13
40918;BME280;26644;50.248;19.032;2022-11-20T04:35:51;97703.28;;;-5.80;74.22
40918;BME280;26644;50.248;19.032;2022-11-20T04:36:52;97706.78;;;-5.79;74.38
40918;BME280;26644;50.248;19.032;2022-11-20T04:37:55;97700.59;;;-5.80;74.48
40918;BME280;26644;50.248;19.032;2022-11-20T04:38:58;97693.53;;;-5.87;74.79
40918;BME280;26644;50.248;19.032;2022-11-20T04:40:03;97702.28;;;-5.79;74.77
40918;BME280;26644;50.248;19.032;2022-11-20T04:41:08;97699.78;;;-5.80;74.77
40918;BME280;26644;50.248;19.032;2022-11-20T04:42:15;97715.00;;;-5.81;74.87
40918;BME280;26644;50.248;19.032;2022-11-20T04:43:34;97710.50;;;-5.80;75.19
40918;BME280;26644;50.248;19.032;2022-11-20T04:44:35;97710.50;;;-5.80;75.12
40918;BME280;26644;50.248;19.032;2022-11-20T04:45:39;97711.31;;;-5.80;74.92
40918;BME280;26644;50.248;19.032;2022-11-20T04:46:42;97708.44;;;-5.78;74.88
40918;BME280;26644;50.248;19.032;2022-11-20T04:47:44;97711.09;;;-5.78;74.71
40918;BME280;26644;50.248;19.032;2022-11-20T04:48:47;97703.94;;;-5.78;74.60
40918;BME280;26644;50.248;19.032;2022-11-20T04:49:50;97704.75;;;-5.77;74.71
40918;BME280;26644;50.248;19.032;2022-11-20T04:50:52;97701.06;;;-5.76;74.73
40918;BME280;26644;50.248;19.032;2022-11-20T04:51:55;97697.53;;;-5.77;74.72
40918;BME280;26644;50.248;19.032;2022-11-20T04:52:56;97695.06;;;-5.78;74.54
40918;BME280;26644;50.248;19.032;2022-11-20T04:53:59;97694.25;;;-5.79;74.64
40918;BME280;26644;50.248;19.032;2022-11-20T04:55:01;97696.91;;;-5.79;74.60
40918;BME280;26644;50.248;19.032;2022-11-20T04:56:06;97683.31;;;-5.84;74.31
40918;BME280;26644;50.248;19.032;2022-11-20T04:57:08;97691.78;;;-5.80;74.48
40918;BME280;26644;50.248;19.032;2022-11-20T04:58:11;97690.94;;;-5.81;74.40
40918;BME280;26644;50.248;19.032;2022-11-20T04:59:14;97685.78;;;-5.82;74.30
40918;BME280;26644;50.248;19.032;2022-11-20T05:00:17;97684.13;;;-5.83;74.53
40918;BME280;26644;50.248;19.032;2022-11-20T05:01:21;97681.84;;;-5.86;74.40
40918;BME280;26644;50.248;19.032;2022-11-20T05:02:25;97679.34;;;-5.88;74.46
40918;BME280;26644;50.248;19.032;2022-11-20T05:03:27;97682.84;;;-5.87;74.45
40918;BME280;26644;50.248;19.032;2022-11-20T05:04:30;97683.88;;;-5.88;74.58
40918;BME280;26644;50.248;19.032;2022-11-20T05:05:33;97673.38;;;-5.90;74.37
40918;BME280;26644;50.248;19.032;2022-11-20T05:06:36;97682.22;;;-5.89;74.75
40918;BME280;26644;50.248;19.032;2022-11-20T05:07:37;97683.44;;;-5.92;74.30
40918;BME280;26644;50.248;19.032;2022-11-20T05:08:41;97670.03;;;-5.99;74.83
40918;BME280;26644;50.248;19.032;2022-11-20T05:09:43;97679.31;;;-5.95;74.51
40918;BME280;26644;50.248;19.032;2022-11-20T05:10:46;97676.63;;;-5.95;74.53
40918;BME280;26644;50.248;19.032;2022-11-20T05:11:47;97673.09;;;-5.95;74.39
40918;BME280;26644;50.248;19.032;2022-11-20T05:12:50;97678.47;;;-5.95;74.22
40918;BME280;26644;50.248;19.032;2022-11-20T05:13:52;97678.66;;;-5.97;74.41
40918;BME280;26644;50.248;19.032;2022-11-20T05:14:55;97677.84;;;-5.97;74.30
40918;BME280;26644;50.248;19.032;2022-11-20T05:16:01;97675.97;;;-5.97;74.38
40918;BME280;26644;50.248;19.032;2022-11-20T05:17:05;97673.50;;;-5.98;74.18
40918;BME280;26644;50.248;19.032;2022-11-20T05:18:07;97671.66;;;-5.98;74.16
40918;BME280;26644;50.248;19.032;2022-11-20T05:19:09;97670.19;;;-6.00;74.08
40918;BME280;26644;50.248;19.032;2022-11-20T05:20:11;97669.38;;;-6.01;74.25
40918;BME280;26644;50.248;19.032;2022-11-20T05:21:15;97668.56;;;-6.01;74.08
40918;BME280;26644;50.248;19.032;2022-11-20T05:22:17;97660.09;;;-6.05;74.03
40918;BME280;26644;50.248;19.032;2022-11-20T05:23:20;97666.91;;;-6.02;73.49
40918;BME280;26644;50.248;19.032;2022-11-20T05:24:21;97661.53;;;-6.02;73.42
40918;BME280;26644;50.248;19.032;2022-11-20T05:25:24;97659.88;;;-6.03;73.52
40918;BME280;26644;50.248;19.032;2022-11-20T05:26:26;97665.22;;;-6.03;73.46
40918;BME280;26644;50.248;19.032;2022-11-20T05:27:28;97661.53;;;-6.02;73.37
40918;BME280;26644;50.248;19.032;2022-11-20T05:28:31;97665.22;;;-6.03;73.17
40918;BME280;26644;50.248;19.032;2022-11-20T05:29:34;97659.88;;;-6.03;72.94
40918;BME280;26644;50.248;19.032;2022-11-20T05:30:36;97659.28;;;-6.05;72.58
40918;BME280;26644;50.248;19.032;2022-11-20T05:31:39;97655.94;;;-6.07;72.28
40918;BME280;26644;50.248;19.032;2022-11-20T05:32:42;97661.50;;;-6.09;72.38
40918;BME280;26644;50.248;19.032;2022-11-20T05:33:45;97661.69;;;-6.11;72.12
40918;BME280;26644;50.248;19.032;2022-11-20T05:34:47;97660.22;;;-6.13;72.05
40918;BME280;26644;50.248;19.032;2022-11-20T05:35:50;97664.09;;;-6.16;71.59